AleStat.com

Zmiany w rankingu / Ranking

Z dnia w okresie

pokaz dodatkowe opcje ukryj dodatkowe opcje
Pokaż wykres Ukryj wykres
Strona Pozycja lokalna 2020-04-08 Pozycja globalna 2020-04-08 AleStat Rank
adzbux.com  Pokaż na alexa.com adzbux.com  Przekieruj do adzbux.com 22 / +108 130 dnia 2020-04-07 5 346 / +40281 45 627 dnia 2020-04-07 173.28
meezanbank.com  Pokaż na alexa.com meezanbank.com  Przekieruj do meezanbank.com 33 / +51 84 dnia 2020-04-07 9 479 / +21299 30 778 dnia 2020-04-07 149.60
templateify.com  Pokaż na alexa.com templateify.com  Przekieruj do templateify.com Templateify | Unique Blogger Templates Free Download 81 / +593 674 dnia 2020-04-07 28 334 / +186161 214 495 dnia 2020-04-07 143.53
pof.gov.pk  Pokaż na alexa.com pof.gov.pk  Przekieruj do pof.gov.pk Pakistan Ordnance Factories 78 / +1066 1 144 dnia 2020-04-07 27 758 / +389728 417 486 dnia 2020-04-07 142.26
ishopping.pk  Pokaż na alexa.com ishopping.pk  Przekieruj do ishopping.pk iShopping.Pk - Pakistan's Fastest Growing Online Shopping Network. Online Shopping in Pakistan. Karachi - Lahore - Islamabad - Peshawar - Rawalpindi 112 / +598 710 dnia 2020-04-07 38 568 / +186942 225 510 dnia 2020-04-07 140.02
theengineeringprojects.com  Pokaż na alexa.com theengineeringprojects.com  Przekieruj do theengineeringprojects.com 41 / +54 95 dnia 2020-04-07 12 843 / +21632 34 475 dnia 2020-04-07 137.28
nawaiwaqt.com.pk  Pokaż na alexa.com nawaiwaqt.com.pk  Przekieruj do nawaiwaqt.com.pk Today's Urdu ePaper Pakistan | NAWAIWAQT 46 / +43 89 dnia 2020-04-07 14 414 / +18307 32 721 dnia 2020-04-07 122.07
precracks.com  Pokaż na alexa.com precracks.com  Przekieruj do precracks.com 236 / +528 764 dnia 2020-04-07 79 682 / +164644 244 326 dnia 2020-04-07 117.12
dnschecker.org  Pokaż na alexa.com dnschecker.org  Przekieruj do dnschecker.org 71 / +130 201 dnia 2020-04-07 23 028 / +44262 67 290 dnia 2020-04-07 117.11
dastiab.com  Pokaż na alexa.com dastiab.com  Przekieruj do dastiab.com 122 / +438 560 dnia 2020-04-07 41 711 / +132844 174 555 dnia 2020-04-07 114.05
apkmart.net  Pokaż na alexa.com apkmart.net  Przekieruj do apkmart.net 267 / +418 685 dnia 2020-04-07 91 221 / +129321 220 542 dnia 2020-04-07 98.14
sngpl.com.pk  Pokaż na alexa.com sngpl.com.pk  Przekieruj do sngpl.com.pk SNGPL :: HOME PAGE :: 88 / +97 185 dnia 2020-04-07 30 798 / +31763 62 561 dnia 2020-04-07 91.46
productkeyforfree.com  Pokaż na alexa.com productkeyforfree.com  Przekieruj do productkeyforfree.com 63 / +35 98 dnia 2020-04-07 20 425 / +14629 35 054 dnia 2020-04-07 91.29
kitaabghar.com  Pokaż na alexa.com kitaabghar.com  Przekieruj do kitaabghar.com Kitaab Ghar; High Quality Free Urdu Novels and Urdu Books on Islamic Historic, Action Adventure, Travelogue, Articles & Essays, History and Research Work 290 / +371 661 dnia 2020-04-07 96 009 / +114719 210 728 dnia 2020-04-07 89.31
bestandfree.com  Pokaż na alexa.com bestandfree.com  Przekieruj do bestandfree.com Best And Free - free and fresh xxx movie galleries 120 / +293 413 dnia 2020-04-07 41 322 / +90779 132 101 dnia 2020-04-07 86.80
quranreading.com  Pokaż na alexa.com quranreading.com  Przekieruj do quranreading.com Quran Recitation: Holy Quran Learning and Online Quran Reading | Live Quran Tutor 257 / +341 598 dnia 2020-04-07 86 248 / +101057 187 305 dnia 2020-04-07 83.80
crackerpie.net  Pokaż na alexa.com crackerpie.net  Przekieruj do crackerpie.net 159 / +288 447 dnia 2020-04-07 51 993 / +88002 139 995 dnia 2020-04-07 82.55
techguideme.com  Pokaż na alexa.com techguideme.com  Przekieruj do techguideme.com 284 / +999716 1 000 000 dnia 2020-04-07 93 732 / +906268 1 000 000 dnia 2020-04-07 81.56
icap.org.pk  Pokaż na alexa.com icap.org.pk  Przekieruj do icap.org.pk 235 / +289 524 dnia 2020-04-07 78 876 / +88223 167 099 dnia 2020-04-07 77.25
dabang.pk  Pokaż na alexa.com dabang.pk  Przekieruj do dabang.pk 124 / +111 235 dnia 2020-04-07 41 810 / +39797 81 607 dnia 2020-04-07 77.15
harpalgeo.tv  Pokaż na alexa.com harpalgeo.tv  Przekieruj do harpalgeo.tv Har Pal Geo.TV | Pakistani Drama, Video | Geo TV Official Website 107 / +247 354 dnia 2020-04-07 37 852 / +75446 113 298 dnia 2020-04-07 75.40
sbp.org.pk  Pokaż na alexa.com sbp.org.pk  Przekieruj do sbp.org.pk State Bank of Pakistan - The Central Bank 91 / +59 150 dnia 2020-04-07 31 238 / +21593 52 831 dnia 2020-04-07 72.56
clicknupload.net  Pokaż na alexa.com clicknupload.net  Przekieruj do clicknupload.net 291 / +291 582 dnia 2020-04-07 96 039 / +83670 179 709 dnia 2020-04-07 70.84
crackedfine.com  Pokaż na alexa.com crackedfine.com  Przekieruj do crackedfine.com 132 / +136 268 dnia 2020-04-07 44 662 / +46581 91 243 dnia 2020-04-07 68.13
92newshd.tv  Pokaż na alexa.com 92newshd.tv  Przekieruj do 92newshd.tv 281 / +265 546 dnia 2020-04-07 93 464 / +77473 170 937 dnia 2020-04-07 67.16
eduvision.edu.pk  Pokaż na alexa.com eduvision.edu.pk  Przekieruj do eduvision.edu.pk EduVision-A project of ease foundation 119 / +75 194 dnia 2020-04-07 40 788 / +24359 65 147 dnia 2020-04-07 67.03
parhlo.com  Pokaż na alexa.com parhlo.com  Przekieruj do parhlo.com 49 / +25 74 dnia 2020-04-07 17 714 / +8280 25 994 dnia 2020-04-07 65.42
marham.pk  Pokaż na alexa.com marham.pk  Przekieruj do marham.pk 113 / +191 304 dnia 2020-04-07 38 640 / +60366 99 006 dnia 2020-04-07 65.14
seller.tools  Pokaż na alexa.com seller.tools  Przekieruj do seller.tools 270 / +243 513 dnia 2020-04-07 91 811 / +73860 165 671 dnia 2020-04-07 64.92
tcsexpress.com  Pokaż na alexa.com tcsexpress.com  Przekieruj do tcsexpress.com 292 / +253 545 dnia 2020-04-07 96 180 / +73995 170 175 dnia 2020-04-07 64.27
mcb.com.pk  Pokaż na alexa.com mcb.com.pk  Przekieruj do mcb.com.pk Welcome to MCB Bank 90 / +38 128 dnia 2020-04-07 31 173 / +13569 44 742 dnia 2020-04-07 60.57
kickasscracks.com  Pokaż na alexa.com kickasscracks.com  Przekieruj do kickasscracks.com 306 / +227 533 dnia 2020-04-07 99 595 / +68457 168 052 dnia 2020-04-07 59.80
freebooks.pk  Pokaż na alexa.com freebooks.pk  Przekieruj do freebooks.pk 246 / +218 464 dnia 2020-04-07 81 222 / +63637 144 859 dnia 2020-04-07 58.98
sadeempc.com  Pokaż na alexa.com sadeempc.com  Przekieruj do sadeempc.com 121 / +59 180 dnia 2020-04-07 41 448 / +19992 61 440 dnia 2020-04-07 58.67
brandsynario.com  Pokaż na alexa.com brandsynario.com  Przekieruj do brandsynario.com Pakistan's Largest Advertising, Media and Marketing Resource | brandsynario.com 280 / +221 501 dnia 2020-04-07 93 350 / +64926 158 276 dnia 2020-04-07 58.17
hum.tv  Pokaż na alexa.com hum.tv  Przekieruj do hum.tv Hum TV Pakistani Dramas Online| Hum Video Gallery | Hum Archive| Live TV 135 / +168 303 dnia 2020-04-07 45 800 / +53040 98 840 dnia 2020-04-07 57.67
czone.com.pk  Pokaż na alexa.com czone.com.pk  Przekieruj do czone.com.pk Computer Zone Pakistan | Computer & Laptop Prices in Pakistan - Gaming Products - Graphic Cards - Karachi 133 / +66 199 dnia 2020-04-07 45 590 / +21538 67 128 dnia 2020-04-07 57.16
jobz.pk  Pokaż na alexa.com jobz.pk  Przekieruj do jobz.pk Jobs in Pakistan Online News Paper Jobs Lahore, Karachi, Islamabad 2013 - Jobs.pk Jobz.pk 48 / +23 71 dnia 2020-04-07 17 007 / +6882 23 889 dnia 2020-04-07 57.03
ummat.com.pk  Pokaż na alexa.com ummat.com.pk  Przekieruj do ummat.com.pk 243 / +208 451 dnia 2020-04-07 80 643 / +60001 140 644 dnia 2020-04-07 56.19
pgc.edu  Pokaż na alexa.com pgc.edu  Przekieruj do pgc.edu Welcome to The Punjab Group 165 / +83 248 dnia 2020-04-07 53 411 / +33916 87 327 dnia 2020-04-07 56.17
thekawish.com  Pokaż na alexa.com thekawish.com  Przekieruj do thekawish.com 256 / +213 469 dnia 2020-04-07 85 284 / +60626 145 910 dnia 2020-04-07 56.04
gulahmedshop.com  Pokaż na alexa.com gulahmedshop.com  Przekieruj do gulahmedshop.com 231 / +203 434 dnia 2020-04-07 77 358 / +58958 136 316 dnia 2020-04-07 55.80
clipbucket.com  Pokaż na alexa.com clipbucket.com  Przekieruj do clipbucket.com ClipBucket – Free Video Sharing Website Script, Youtube, Daily-motion Clone, PHP Video Script, Media Sharing CMS, Best PHP Solution for Social Networking. 207 / +177 384 dnia 2020-04-07 67 485 / +55697 123 182 dnia 2020-04-07 54.40
pta.gov.pk  Pokaż na alexa.com pta.gov.pk  Przekieruj do pta.gov.pk 131 / +56 187 dnia 2020-04-07 44 598 / +19141 63 739 dnia 2020-04-07 54.00
equraninstitute.com  Pokaż na alexa.com equraninstitute.com  Przekieruj do equraninstitute.com Online Quran Classes at home | Live Holy Quran Learning for kids at eQuranInstitute 226 / +172 398 dnia 2020-04-07 71 079 / +55676 126 755 dnia 2020-04-07 53.92
dailytimes.com.pk  Pokaż na alexa.com dailytimes.com.pk  Przekieruj do dailytimes.com.pk Daily Times - Leading News Resource of Pakistan 101 / +44 145 dnia 2020-04-07 35 597 / +15618 51 215 dnia 2020-04-07 53.73
4everproxy.com  Pokaż na alexa.com 4everproxy.com  Przekieruj do 4everproxy.com 4everproxy Network - Unblock Youtube, Twitter, Facebook and More 164 / +169 333 dnia 2020-04-07 53 212 / +52308 105 520 dnia 2020-04-07 53.21
lums.edu.pk  Pokaż na alexa.com lums.edu.pk  Przekieruj do lums.edu.pk Lahore University of Management Sciences (LUMS) 127 / +49 176 dnia 2020-04-07 42 573 / +17763 60 336 dnia 2020-04-07 53.10
blog5.net  Pokaż na alexa.com blog5.net  Przekieruj do blog5.net 285 / +199 484 dnia 2020-04-07 93 782 / +58061 151 843 dnia 2020-04-07 52.88
sonic.pk  Pokaż na alexa.com sonic.pk  Przekieruj do sonic.pk 223 / +170 393 dnia 2020-04-07 70 234 / +54303 124 537 dnia 2020-04-07 52.87
dawateislami.net  Pokaż na alexa.com dawateislami.net  Przekieruj do dawateislami.net Islam, Quran, Sunnah, Hadith, Fiqh, Fatwa, Naat, Bayan, Islamic Books, Namaz Timings, Rohani Ilaj, Istikhara 129 / +54 183 dnia 2020-04-07 44 009 / +18170 62 179 dnia 2020-04-07 52.66
dailyausaf.com  Pokaż na alexa.com dailyausaf.com  Przekieruj do dailyausaf.com Daily Ausaf | Leading Newspaper of Pakistan 175 / +51 226 dnia 2020-04-07 55 548 / +23958 79 506 dnia 2020-04-07 48.93
firstideaweb.com  Pokaż na alexa.com firstideaweb.com  Przekieruj do firstideaweb.com 272 / +191 463 dnia 2020-04-07 92 498 / +52360 144 858 dnia 2020-04-07 48.53
limelight.pk  Pokaż na alexa.com limelight.pk  Przekieruj do limelight.pk 248 / +166 414 dnia 2020-04-07 81 847 / +50353 132 200 dnia 2020-04-07 48.13
jang.com.pk  Pokaż na alexa.com jang.com.pk  Przekieruj do jang.com.pk Daily Jang Urdu News | Pakistan News | Latest News - Breaking News 11 / +5 16 dnia 2020-04-07 2 850 / +1297 4 147 dnia 2020-04-07 46.60
uaf.edu.pk  Pokaż na alexa.com uaf.edu.pk  Przekieruj do uaf.edu.pk University of Agriculture, Faisalabad, Pakistan -> Home Page 178 / +51 229 dnia 2020-04-07 57 085 / +23013 80 098 dnia 2020-04-07 46.33
pakihosting.com  Pokaż na alexa.com pakihosting.com  Przekieruj do pakihosting.com 184 / +96 280 dnia 2020-04-07 59 519 / +33792 93 311 dnia 2020-04-07 45.97
thenews.com.pk  Pokaż na alexa.com thenews.com.pk  Przekieruj do thenews.com.pk The News International: Latest News Breaking, Pakistan News 25 / +10 35 dnia 2020-04-07 6 473 / +3368 9 841 dnia 2020-04-07 45.61
expressnews.com  Pokaż na alexa.com expressnews.com  Przekieruj do expressnews.com 276 / +167 443 dnia 2020-04-07 92 885 / +46641 139 526 dnia 2020-04-07 43.80
aiou.edu.pk  Pokaż na alexa.com aiou.edu.pk  Przekieruj do aiou.edu.pk Allama Iqbal Open University 35 / +7 42 dnia 2020-04-07 9 844 / +3746 13 590 dnia 2020-04-07 43.56
jasarat.com  Pokaż na alexa.com jasarat.com  Przekieruj do jasarat.com Jasarat Newspaper 2013-03-28, Jasarat First Urdu Online Newspaper in Pakistan - Daily Jasarat 182 / +52 234 dnia 2020-04-07 59 035 / +22285 81 320 dnia 2020-04-07 43.52
uol.edu.pk  Pokaż na alexa.com uol.edu.pk  Przekieruj do uol.edu.pk University of Lahore 105 / +35 140 dnia 2020-04-07 37 192 / +11473 48 665 dnia 2020-04-07 42.96
habibmetro.com  Pokaż na alexa.com habibmetro.com  Przekieruj do habibmetro.com HABIBMETRO Bank 140 / +38 178 dnia 2020-04-07 46 743 / +14213 60 956 dnia 2020-04-07 42.05
awaztoday.pk  Pokaż na alexa.com awaztoday.pk  Przekieruj do awaztoday.pk 247 / +138 385 dnia 2020-04-07 81 491 / +41918 123 409 dnia 2020-04-07 40.92
websouls.com  Pokaż na alexa.com websouls.com  Przekieruj do websouls.com Web Hosting in Pakistan | Pk Domain Registration | PK Domains | WebSouls 294 / +139 433 dnia 2020-04-07 96 583 / +39465 136 048 dnia 2020-04-07 37.38
iqra.edu.pk  Pokaż na alexa.com iqra.edu.pk  Przekieruj do iqra.edu.pk Iqra University - Where your future begins! 160 / +36 196 dnia 2020-04-07 52 124 / +13675 65 799 dnia 2020-04-07 37.19
pu.edu.pk  Pokaż na alexa.com pu.edu.pk  Przekieruj do pu.edu.pk University of the Punjab 156 / +36 192 dnia 2020-04-07 51 565 / +13330 64 895 dnia 2020-04-07 36.85
androidapksfree.com  Pokaż na alexa.com androidapksfree.com  Przekieruj do androidapksfree.com 89 / +15 104 dnia 2020-04-07 30 885 / +6063 36 948 dnia 2020-04-07 35.73
uploadev.org  Pokaż na alexa.com uploadev.org  Przekieruj do uploadev.org 295 / +123 418 dnia 2020-04-07 96 614 / +36776 133 390 dnia 2020-04-07 35.05
javedch.com  Pokaż na alexa.com javedch.com  Przekieruj do javedch.com Javed Choudhry | Official website of Javed Chaudhry 70 / +6 76 dnia 2020-04-07 23 024 / +4589 27 613 dnia 2020-04-07 34.90
reviewit.pk  Pokaż na alexa.com reviewit.pk  Przekieruj do reviewit.pk Pakistani Drama Reviews, Ratings & Entertainment News Portal 170 / +30 200 dnia 2020-04-07 54 599 / +12586 67 185 dnia 2020-04-07 33.37
pakwheels.com  Pokaż na alexa.com pakwheels.com  Przekieruj do pakwheels.com Cars, Used Cars, New Cars, Latest Car Prices & News in Pakistan | Pakwheels 32 / +5 37 dnia 2020-04-07 8 904 / +2611 11 515 dnia 2020-04-07 32.58
exportleftovers.com  Pokaż na alexa.com exportleftovers.com  Przekieruj do exportleftovers.com 217 / +37 254 dnia 2020-04-07 68 667 / +20658 89 325 dnia 2020-04-07 32.17
weboc.gov.pk  Pokaż na alexa.com weboc.gov.pk  Przekieruj do weboc.gov.pk 128 / +21 149 dnia 2020-04-07 43 263 / +9190 52 453 dnia 2020-04-07 31.05
designinvento.net  Pokaż na alexa.com designinvento.net  Przekieruj do designinvento.net 288 / +111 399 dnia 2020-04-07 94 815 / +32024 126 839 dnia 2020-04-07 31.01
pgc.edu.pk  Pokaż na alexa.com pgc.edu.pk  Przekieruj do pgc.edu.pk 148 / +26 174 dnia 2020-04-07 48 962 / +10025 58 987 dnia 2020-04-07 30.64
adultproxy.men  Pokaż na alexa.com adultproxy.men  Przekieruj do adultproxy.men 263 / +112 375 dnia 2020-04-07 89 352 / +30994 120 346 dnia 2020-04-07 30.47
mumara.com  Pokaż na alexa.com mumara.com  Przekieruj do mumara.com 254 / +106 360 dnia 2020-04-07 84 681 / +30459 115 140 dnia 2020-04-07 30.31
rozee.pk  Pokaż na alexa.com rozee.pk  Przekieruj do rozee.pk Jobs in Pakistan, Careers in Pakistan, Jobs, Employment, Careers | ROZEE.PK 44 / +6 50 dnia 2020-04-07 13 304 / +2841 16 145 dnia 2020-04-07 30.06
fashionuniverse.net  Pokaż na alexa.com fashionuniverse.net  Przekieruj do fashionuniverse.net Fashion Universe 201 / +32 233 dnia 2020-04-07 65 727 / +15152 80 879 dnia 2020-04-07 29.92
samaa.tv  Pokaż na alexa.com samaa.tv  Przekieruj do samaa.tv :: SAMAA TV :: Top Stories, Breaking News, Latest News, SpotLight, In Videos, Capital, Sindh, Balochistan, Punjab, KPK & Fata, World, Business, Sports, Entertainment, Editor's Pick 47 / +11 58 dnia 2020-04-07 16 484 / +3178 19 662 dnia 2020-04-07 29.04
paklap.pk  Pokaż na alexa.com paklap.pk  Przekieruj do paklap.pk 125 / +16 141 dnia 2020-04-07 41 987 / +7814 49 801 dnia 2020-04-07 27.63
elinksol.net  Pokaż na alexa.com elinksol.net  Przekieruj do elinksol.net ELink Solution - Outsoure Website Design, Web Development, SEO Services in Pakistan 307 / +97 404 dnia 2020-04-07 99 881 / +28237 128 118 dnia 2020-04-07 27.26
ummat.net  Pokaż na alexa.com ummat.net  Przekieruj do ummat.net 64 / +8 72 dnia 2020-04-07 20 695 / +3289 23 984 dnia 2020-04-07 27.20
tune.pk  Pokaż na alexa.com tune.pk  Przekieruj do tune.pk Tune.pk - share videos, create collections, upload photos and share it with friends 39 / +1 40 dnia 2020-04-07 11 136 / +2131 13 267 dnia 2020-04-07 25.06
oup.com.pk  Pokaż na alexa.com oup.com.pk  Przekieruj do oup.com.pk 305 / +89 394 dnia 2020-04-07 99 389 / +25386 124 775 dnia 2020-04-07 24.70
jobee.pk  Pokaż na alexa.com jobee.pk  Przekieruj do jobee.pk 212 / +16 228 dnia 2020-04-07 67 687 / +11984 79 671 dnia 2020-04-07 24.38
fbr.gov.pk  Pokaż na alexa.com fbr.gov.pk  Przekieruj do fbr.gov.pk Federal Board of Revenue (FBR), Government of Pakistan 37 / +1 38 dnia 2020-04-07 10 668 / +1968 12 636 dnia 2020-04-07 23.65
galaxy.pk  Pokaż na alexa.com galaxy.pk  Przekieruj do galaxy.pk Galaxy Pakistan's Leading Web Store - Buy Online Laptops - Desktop - Graphic Card - Tablets - iPad - iPhone - Gaming Notebook - Accessories - Smart Phone 176 / +19 195 dnia 2020-04-07 56 820 / +8579 65 399 dnia 2020-04-07 23.50
aaj.tv  Pokaż na alexa.com aaj.tv  Przekieruj do aaj.tv AAJ News - AAJ Breaking News, Pakistan News, AAJ National, AAJ Business, AAJ Opinion, AAJ Editorials, AAJ Fashion 274 / +84 358 dnia 2020-04-07 92 663 / +22421 115 084 dnia 2020-04-07 22.32
easypaisa.com.pk  Pokaż na alexa.com easypaisa.com.pk  Przekieruj do easypaisa.com.pk Easypaisa 249 / +80 329 dnia 2020-04-07 82 053 / +21423 103 476 dnia 2020-04-07 21.89
soft2ev.com  Pokaż na alexa.com soft2ev.com  Przekieruj do soft2ev.com 234 / +55 289 dnia 2020-04-07 78 279 / +17308 95 587 dnia 2020-04-07 21.60
cricketpakistan.com.pk  Pokaż na alexa.com cricketpakistan.com.pk  Przekieruj do cricketpakistan.com.pk 214 / +8 222 dnia 2020-04-07 68 210 / +10131 78 341 dnia 2020-04-07 21.27
pokal.jp  Pokaż na alexa.com pokal.jp  Przekieruj do pokal.jp 502 Bad Gateway 116 / +13 129 dnia 2020-04-07 40 483 / +4817 45 300 dnia 2020-04-07 21.01
crackdev.com  Pokaż na alexa.com crackdev.com  Przekieruj do crackdev.com 244 / +71 315 dnia 2020-04-07 80 687 / +19927 100 614 dnia 2020-04-07 20.50
nation.com.pk  Pokaż na alexa.com nation.com.pk  Przekieruj do nation.com.pk The Nation - Latest Pakistan news from Islamabad, Lahore, Karachi, Quetta, Peshawar | The Nation 40 / -1 39 dnia 2020-04-07 11 471 / +1687 13 158 dnia 2020-04-07 19.92
reiboots.com  Pokaż na alexa.com reiboots.com  Przekieruj do reiboots.com 252 / +72 324 dnia 2020-04-07 83 685 / +18558 102 243 dnia 2020-04-07 19.02
hamariweb.com  Pokaż na alexa.com hamariweb.com  Przekieruj do hamariweb.com Pakistan News | Business & Finance | Travel | Mobile | Classified | Dictionary | Live Cricket | Urdu Poetry 1 / +1 2 dnia 2020-04-07 526 / +118 644 dnia 2020-04-07 18.67
urdupoint.com  Pokaż na alexa.com urdupoint.com  Przekieruj do urdupoint.com 2 / +2 4 dnia 2020-04-07 537 / +115 652 dnia 2020-04-07 18.02
freekeyworddifficultytool.com  Pokaż na alexa.com freekeyworddifficultytool.com  Przekieruj do freekeyworddifficultytool.com 251 / +41 292 dnia 2020-04-07 82 211 / +14289 96 500 dnia 2020-04-07 17.19
Ważne: nasze strony wykorzystują pliki cookies.

Bez tych plików serwis nie będzie działał poprawnie. W każdej chwili, w programie służącym do obsługi internetu, można zmienić ustawienia dotyczące cookies. Korzystanie z naszego serwisu bez zmiany ustawień oznacza, że będą one zapisane w pamięci urządzenia. Więcej informacji w Polityce prywatności.

Zapoznałem się z informacją